Time;durP1;ratioP1;P1;durP2;ratioP2;P2;SDS_P1;SDS_P2;PMS_P1;PMS_P2;Temp;Humidity;BMP_temperature;BMP_pressure;BME280_temperature;BME280_humidity;BME280_pressure;Samples;Min_cycle;Max_cycle;Signal;HPM_P1;HPM_P2
2021/12/14 00:02:13;;;;;;;12.90;9.73;;;9.00;99.90;;;;;;5115411;28;20048;-67
2021/12/14 00:04:40;;;;;;;13.73;9.35;;;9.10;99.90;;;;;;5115738;28;20077;-67
2021/12/14 00:07:10;;;;;;;13.43;9.63;;;9.10;99.90;;;;;;5115168;28;20122;-67
2021/12/14 00:09:39;;;;;;;11.80;9.00;;;9.10;99.90;;;;;;5115083;28;20059;-67
2021/12/14 00:12:40;;;;;;;14.57;9.52;;;9.00;99.90;;;;;;5115011;28;20496;-67
2021/12/14 00:15:12;;;;;;;12.90;9.65;;;9.00;99.90;;;;;;5115030;28;20047;-67
2021/12/14 00:17:45;;;;;;;11.82;8.82;;;9.00;99.90;;;;;;5114677;28;20039;-67
2021/12/14 00:20:28;;;;;;;15.10;8.93;;;9.00;99.90;;;;;;5096974;28;20479;-67
2021/12/14 00:25:42;;;;;;;12.98;8.98;;;9.00;99.90;;;;;;5114714;28;20048;-67
2021/12/14 00:28:18;;;;;;;13.27;9.68;;;9.00;99.90;;;;;;5114792;28;20449;-67
2021/12/14 00:30:47;;;;;;;14.05;9.40;;;9.00;99.90;;;;;;5114732;28;20055;-68
2021/12/14 00:33:16;;;;;;;12.98;8.82;;;9.00;99.90;;;;;;5115212;28;20082;-68
2021/12/14 00:35:42;;;;;;;13.35;10.00;;;9.00;99.90;;;;;;5114591;28;20111;-67
2021/12/14 00:38:10;;;;;;;11.68;9.32;;;9.00;99.90;;;;;;5114523;28;20394;-68
2021/12/14 00:40:41;;;;;;;13.10;8.10;;;9.00;99.90;;;;;;5114487;28;20483;-68
2021/12/14 00:43:06;;;;;;;12.65;9.18;;;9.00;99.90;;;;;;5114634;28;20055;-67
2021/12/14 00:45:38;;;;;;;12.60;8.13;;;9.00;99.90;;;;;;5114478;28;20038;-67
2021/12/14 00:48:05;;;;;;;10.60;7.90;;;9.00;99.90;;;;;;5115237;28;20039;-68
2021/12/14 00:50:32;;;;;;;13.20;8.10;;;9.00;99.90;;;;;;5114652;28;20090;-67
2021/12/14 00:52:58;;;;;;;10.90;7.88;;;9.10;99.90;;;;;;5114290;28;20046;-66
2021/12/14 00:55:30;;;;;;;10.63;8.07;;;9.00;99.90;;;;;;5096735;28;20047;-66
2021/12/14 00:57:56;;;;;;;14.02;8.85;;;8.90;99.90;;;;;;5115094;28;20131;-67
2021/12/14 01:00:40;;;;;;;13.27;8.48;;;8.90;99.90;;;;;;5114246;28;20073;-66
2021/12/14 01:03:07;;;;;;;15.55;9.50;;;8.90;99.90;;;;;;5114511;28;20090;-67
2021/12/14 01:05:37;;;;;;;12.52;8.52;;;9.30;99.90;;;;;;5114138;28;20097;-67
2021/12/14 01:08:08;;;;;;;13.88;8.30;;;8.90;99.90;;;;;;5114094;28;20040;-66
2021/12/14 01:10:55;;;;;;;13.30;8.50;;;8.90;99.90;;;;;;5114674;28;20122;-67
2021/12/14 01:13:25;;;;;;;14.35;8.90;;;8.90;99.90;;;;;;5096442;28;20059;-67
2021/12/14 01:16:15;;;;;;;11.15;8.18;;;8.90;99.90;;;;;;5113995;28;20044;-67
2021/12/14 01:19:01;;;;;;;12.27;7.65;;;8.90;99.90;;;;;;5114327;28;20078;-68
2021/12/14 01:24:09;;;;;;;10.93;7.73;;;9.00;99.90;;;;;;5113587;28;20548;-67
2021/12/14 01:26:38;;;;;;;10.82;7.60;;;8.90;99.90;;;;;;5114541;28;20610;-67
2021/12/14 01:29:08;;;;;;;12.13;8.13;;;8.90;99.90;;;;;;5098076;28;20048;-67
2021/12/14 01:31:37;;;;;;;12.55;8.48;;;8.90;99.90;;;;;;5118158;28;20047;-67
2021/12/14 01:34:14;;;;;;;11.35;7.90;;;8.90;99.90;;;;;;5099827;28;20051;-67
2021/12/14 01:36:48;;;;;;;12.38;7.93;;;8.90;99.90;;;;;;5118044;28;20048;-68
2021/12/14 01:42:01;;;;;;;11.10;7.82;;;9.10;99.90;;;;;;5100572;28;20442;-67
2021/12/14 01:44:32;;;;;;;11.10;8.48;;;8.90;99.90;;;;;;5117935;28;20368;-67
2021/12/14 01:47:08;;;;;;;12.07;8.07;;;8.90;99.90;;;;;;5118520;28;20044;-67
2021/12/14 01:49:35;;;;;;;11.45;7.93;;;8.90;99.90;;;;;;5118729;28;20421;-68
2021/12/14 01:52:07;;;;;;;11.82;7.97;;;8.90;99.90;;;;;;5117796;28;20047;-67
2021/12/14 01:54:40;;;;;;;11.23;7.88;;;8.90;99.90;;;;;;5117725;28;20055;-67
2021/12/14 01:57:15;;;;;;;12.07;8.20;;;8.90;99.90;;;;;;5117616;28;20039;-67
2021/12/14 01:59:44;;;;;;;12.00;8.80;;;8.90;99.90;;;;;;5117696;28;20048;-67
2021/12/14 02:02:33;;;;;;;11.73;8.60;;;8.90;99.90;;;;;;5118117;28;20051;-67
2021/12/14 02:05:05;;;;;;;12.30;8.68;;;9.00;99.90;;;;;;5117605;28;20044;-67
2021/12/14 02:07:32;;;;;;;12.98;8.57;;;8.90;99.90;;;;;;5099344;28;20040;-67
2021/12/14 02:10:11;;;;;;;14.02;8.93;;;8.90;99.90;;;;;;5118081;28;20062;-67
2021/12/14 02:12:42;;;;;;;12.85;9.25;;;8.90;99.90;;;;;;5118022;28;20139;-67
2021/12/14 02:15:28;;;;;;;11.38;8.75;;;8.90;99.90;;;;;;5099707;28;20425;-68
2021/12/14 02:17:57;;;;;;;13.30;9.10;;;8.90;99.90;;;;;;5118109;28;20134;-67
2021/12/14 02:20:30;;;;;;;14.07;9.48;;;8.90;99.90;;;;;;5117824;28;20079;-67
2021/12/14 02:22:57;;;;;;;16.42;10.38;;;8.90;99.90;;;;;;5099496;28;20425;-67
2021/12/14 02:25:23;;;;;;;15.30;9.95;;;8.90;99.90;;;;;;5117597;28;20044;-67
2021/12/14 02:27:51;;;;;;;15.40;9.20;;;8.90;99.90;;;;;;5099131;28;20123;-67
2021/12/14 02:30:24;;;;;;;12.05;8.80;;;8.90;99.90;;;;;;5117023;28;20051;-67
2021/12/14 02:32:50;;;;;;;14.65;9.98;;;8.90;99.90;;;;;;5117114;28;20047;-67
2021/12/14 02:35:20;;;;;;;14.27;9.35;;;9.30;99.90;;;;;;5099243;28;20050;-67
2021/12/14 02:37:53;;;;;;;14.43;9.30;;;9.00;99.90;;;;;;5116992;28;20127;-67
2021/12/14 02:40:32;;;;;;;16.48;9.85;;;8.80;99.90;;;;;;5116825;28;20048;-66
2021/12/14 02:43:02;;;;;;;14.65;9.38;;;8.80;99.90;;;;;;5082346;28;20059;-67
2021/12/14 02:45:28;;;;;;;14.40;9.82;;;8.90;99.90;;;;;;5116488;28;20082;-66
2021/12/14 02:47:55;;;;;;;16.08;10.50;;;8.80;99.90;;;;;;5116709;28;20112;-67
2021/12/14 02:50:23;;;;;;;13.85;9.82;;;8.80;99.90;;;;;;5116611;28;20101;-67
2021/12/14 02:52:49;;;;;;;15.98;10.43;;;8.80;99.90;;;;;;5116625;28;20044;-67
2021/12/14 02:55:22;;;;;;;15.57;10.80;;;9.20;99.90;;;;;;5116532;28;20035;-68
2021/12/14 02:57:52;;;;;;;14.10;9.95;;;8.70;99.90;;;;;;5116839;28;20039;-68
2021/12/14 03:00:38;;;;;;;17.38;10.48;;;8.70;99.90;;;;;;5116474;28;20040;-68
2021/12/14 03:03:06;;;;;;;21.50;13.02;;;8.70;99.90;;;;;;5116197;28;20065;-67
2021/12/14 03:05:36;;;;;;;18.10;12.32;;;8.60;99.90;;;;;;5116345;28;20051;-68
2021/12/14 03:08:15;;;;;;;17.70;11.40;;;8.70;99.90;;;;;;5116206;28;20075;-67
2021/12/14 03:10:58;;;;;;;18.88;12.07;;;8.60;99.90;;;;;;5092993;28;20163;-67
2021/12/14 03:13:35;;;;;;;19.10;12.57;;;8.60;99.90;;;;;;5095695;28;20093;-67
2021/12/14 03:16:05;;;;;;;20.45;11.63;;;8.60;99.90;;;;;;5095930;28;20059;-67
2021/12/14 03:18:34;;;;;;;18.30;12.35;;;8.60;99.90;;;;;;5095708;28;20044;-67
2021/12/14 03:21:15;;;;;;;16.92;12.32;;;8.60;99.90;;;;;;5094742;28;20036;-68
2021/12/14 03:23:45;;;;;;;18.05;12.18;;;8.60;99.90;;;;;;5095969;28;20048;-67
2021/12/14 03:26:15;;;;;;;17.02;12.00;;;8.60;99.90;;;;;;5094962;28;20048;-67
2021/12/14 03:28:45;;;;;;;17.00;11.77;;;8.70;99.90;;;;;;5095591;28;20052;-67
2021/12/14 03:31:11;;;;;;;18.40;11.75;;;8.60;99.90;;;;;;5095856;28;20045;-67
2021/12/14 03:33:45;;;;;;;19.73;11.68;;;8.70;99.90;;;;;;5094529;28;20130;-67
2021/12/14 03:36:17;;;;;;;19.65;12.20;;;8.60;99.90;;;;;;5095534;28;20058;-67
2021/12/14 03:38:50;;;;;;;21.38;13.23;;;8.60;99.90;;;;;;5095450;28;20109;-68
2021/12/14 03:41:17;;;;;;;19.48;12.40;;;8.60;99.90;;;;;;5094794;28;20055;-68
2021/12/14 03:43:57;;;;;;;18.77;11.95;;;8.60;99.90;;;;;;5095301;28;20052;-68
2021/12/14 03:46:28;;;;;;;19.30;12.55;;;8.60;99.90;;;;;;5095013;28;20506;-68
2021/12/14 03:48:54;;;;;;;19.08;12.15;;;8.60;99.90;;;;;;5095082;28;20051;-68
2021/12/14 03:51:22;;;;;;;18.05;12.40;;;8.60;99.90;;;;;;5094574;28;20503;-67
2021/12/14 03:53:51;;;;;;;19.60;12.68;;;8.60;99.90;;;;;;5094025;28;20361;-68
2021/12/14 03:56:17;;;;;;;18.85;13.00;;;8.50;99.90;;;;;;5095027;28;20048;-68
2021/12/14 03:58:43;;;;;;;19.08;12.98;;;8.60;99.90;;;;;;5094998;28;20044;-68
2021/12/14 04:01:20;;;;;;;19.23;12.98;;;8.60;99.90;;;;;;5095827;28;20044;-68
2021/12/14 04:03:50;;;;;;;20.17;12.68;;;8.60;99.90;;;;;;5093788;28;20054;-68
2021/12/14 04:06:17;;;;;;;20.50;13.05;;;8.70;99.90;;;;;;5094985;28;20044;-68
2021/12/14 04:08:44;;;;;;;22.67;13.57;;;8.60;99.90;;;;;;5077652;28;20063;-67
2021/12/14 04:11:12;;;;;;;18.33;12.65;;;8.60;99.90;;;;;;5115138;28;20130;-68
2021/12/14 04:13:43;;;;;;;18.05;12.55;;;8.60;99.90;;;;;;5096918;28;20092;-68
2021/12/14 04:16:12;;;;;;;19.98;13.40;;;8.60;99.90;;;;;;5115074;28;20066;-68
2021/12/14 04:18:38;;;;;;;19.08;12.45;;;8.60;99.90;;;;;;5096689;28;20059;-68
2021/12/14 04:21:05;;;;;;;24.35;13.32;;;8.60;99.90;;;;;;5114911;28;20480;-68
2021/12/14 04:23:37;;;;;;;19.17;13.38;;;8.60;99.90;;;;;;5096927;28;20083;-68
2021/12/14 04:26:04;;;;;;;19.55;13.18;;;8.60;99.90;;;;;;5097182;28;20047;-68
2021/12/14 04:28:35;;;;;;;19.90;13.13;;;8.90;99.90;;;;;;5114772;28;20120;-68
2021/12/14 04:31:01;;;;;;;21.63;12.90;;;8.70;99.90;;;;;;5097216;28;20043;-68
2021/12/14 04:33:34;;;;;;;21.00;13.40;;;8.60;99.90;;;;;;5114673;28;20123;-68
2021/12/14 04:36:03;;;;;;;21.25;13.43;;;8.60;99.90;;;;;;5115238;28;20048;-69
2021/12/14 04:38:34;;;;;;;21.95;13.93;;;8.70;99.90;;;;;;5114512;28;20043;-68
2021/12/14 04:52:23;;;;;;;21.77;13.43;;;8.50;99.90;;;;;;5114382;28;20495;-68
2021/12/14 04:54:56;;;;;;;21.27;13.63;;;8.60;99.90;;;;;;5114297;28;20062;-68
2021/12/14 04:57:36;;;;;;;20.75;14.02;;;8.60;99.90;;;;;;5114327;28;20126;-68
2021/12/14 05:00:29;;;;;;;23.42;14.52;;;8.60;99.90;;;;;;5114327;28;20127;-68
2021/12/14 05:02:57;;;;;;;20.40;13.27;;;8.60;99.90;;;;;;5114648;28;20372;-68
2021/12/14 05:05:29;;;;;;;23.10;13.93;;;8.60;99.90;;;;;;5113551;28;20487;-68
2021/12/14 05:10:54;;;;;;;22.70;14.57;;;8.50;99.90;;;;;;5114455;28;20052;-68
2021/12/14 05:13:32;;;;;;;24.38;15.05;;;8.60;99.90;;;;;;5114103;28;20628;-68
2021/12/14 05:15:58;;;;;;;23.52;14.73;;;8.60;99.90;;;;;;5114665;28;20437;-68
2021/12/14 05:18:24;;;;;;;22.17;14.60;;;9.20;99.90;;;;;;5096633;28;20104;-68
2021/12/14 05:20:51;;;;;;;22.95;15.38;;;8.60;99.90;;;;;;5114003;28;20048;-68
2021/12/14 05:23:22;;;;;;;24.42;14.93;;;8.70;99.90;;;;;;5096075;28;20040;-68
2021/12/14 05:25:49;;;;;;;24.00;14.43;;;8.60;99.90;;;;;;5113883;28;20048;-68
2021/12/14 05:28:15;;;;;;;25.08;15.27;;;8.60;99.90;;;;;;5113950;28;20086;-68
2021/12/14 05:30:45;;;;;;;25.45;14.85;;;8.50;99.90;;;;;;5113953;28;20051;-68
2021/12/14 05:33:18;;;;;;;24.38;15.63;;;8.60;99.90;;;;;;5095703;28;20083;-68
2021/12/14 05:35:46;;;;;;;21.85;14.95;;;8.60;99.90;;;;;;5113892;28;20048;-68
2021/12/14 05:38:17;;;;;;;24.40;16.27;;;8.50;99.90;;;;;;5114055;28;20048;-67
2021/12/14 05:43:22;;;;;;;28.02;16.00;;;8.50;99.90;;;;;;5113873;28;20112;-68
2021/12/14 05:45:53;;;;;;;26.10;16.00;;;8.50;99.90;;;;;;5114006;28;20453;-68
2021/12/14 05:48:28;;;;;;;27.30;16.48;;;8.60;99.90;;;;;;5113811;28;20039;-67
2021/12/14 05:51:05;;;;;;;23.27;14.52;;;8.50;99.90;;;;;;5095624;28;20054;-67
2021/12/14 05:53:35;;;;;;;28.83;17.02;;;8.50;99.90;;;;;;5095658;28;20050;-68
2021/12/14 05:56:06;;;;;;;23.58;14.98;;;8.50;99.90;;;;;;5113368;28;20411;-67
2021/12/14 05:58:32;;;;;;;25.90;15.27;;;8.80;99.90;;;;;;5114236;28;20050;-67
2021/12/14 06:01:02;;;;;;;25.80;15.98;;;8.50;99.90;;;;;;5114629;28;20353;-68
2021/12/14 06:03:31;;;;;;;25.10;15.68;;;8.50;99.90;;;;;;5113875;28;20444;-67
2021/12/14 06:06:00;;;;;;;27.10;15.85;;;8.50;99.90;;;;;;5113758;28;20126;-68
2021/12/14 06:08:32;;;;;;;27.02;15.77;;;8.40;99.90;;;;;;5079665;28;20051;-67
2021/12/14 06:10:58;;;;;;;27.20;16.35;;;8.40;99.90;;;;;;5114153;28;20173;-68
2021/12/14 06:13:40;;;;;;;26.30;16.52;;;8.40;99.90;;;;;;5113541;28;20044;-68
2021/12/14 06:16:08;;;;;;;26.33;16.20;;;8.70;99.90;;;;;;5099252;28;20047;-68
2021/12/14 06:18:34;;;;;;;26.17;16.23;;;8.40;99.90;;;;;;5099095;28;20373;-68
2021/12/14 06:21:00;;;;;;;27.30;16.38;;;8.50;99.90;;;;;;5117807;28;20052;-68
2021/12/14 06:23:28;;;;;;;26.30;15.75;;;8.50;99.90;;;;;;5117258;28;20046;-68
2021/12/14 06:25:55;;;;;;;30.58;18.90;;;8.40;99.90;;;;;;5099102;28;20052;-69
2021/12/14 06:28:27;;;;;;;29.88;17.23;;;8.40;99.90;;;;;;5117367;28;20467;-68
2021/12/14 06:30:54;;;;;;;28.70;16.83;;;8.40;99.90;;;;;;5099894;28;20474;-67
2021/12/14 06:33:20;;;;;;;28.95;17.02;;;8.50;99.90;;;;;;5098846;28;20475;-68
2021/12/14 06:35:50;;;;;;;25.27;16.45;;;8.40;99.90;;;;;;5117008;28;20051;-68
2021/12/14 06:38:29;;;;;;;27.10;17.08;;;8.40;99.90;;;;;;5116586;28;20523;-68
2021/12/14 06:41:00;;;;;;;29.02;16.65;;;8.40;99.90;;;;;;5117498;28;20047;-69
2021/12/14 06:43:32;;;;;;;27.98;17.20;;;8.40;99.90;;;;;;5117108;28;20476;-68
2021/12/14 06:46:02;;;;;;;29.90;17.95;;;8.40;99.90;;;;;;5117137;28;20536;-68
2021/12/14 06:48:48;;;;;;;29.17;16.38;;;8.50;99.90;;;;;;5117266;28;20131;-68
2021/12/14 06:51:18;;;;;;;26.60;16.27;;;8.40;99.90;;;;;;5099585;28;20047;-68
2021/12/14 06:53:49;;;;;;;29.88;17.02;;;8.40;99.90;;;;;;5117261;28;20139;-68
2021/12/14 06:56:17;;;;;;;27.73;16.77;;;8.40;99.90;;;;;;5117506;28;20097;-68
2021/12/14 06:58:57;;;;;;;28.65;17.50;;;8.40;99.90;;;;;;5116482;28;20090;-69
2021/12/14 07:01:40;;;;;;;27.17;16.45;;;8.60;99.90;;;;;;5116508;28;20043;-68
2021/12/14 07:04:13;;;;;;;26.52;17.00;;;8.40;99.90;;;;;;5098548;28;20100;-68
2021/12/14 07:06:43;;;;;;;29.17;16.48;;;8.40;99.90;;;;;;5097926;28;20510;-68
2021/12/14 07:09:11;;;;;;;27.25;16.60;;;8.40;99.90;;;;;;5116359;28;20059;-69
2021/12/14 07:11:38;;;;;;;28.58;16.63;;;8.50;99.90;;;;;;5098139;28;20123;-68
2021/12/14 07:14:26;;;;;;;27.52;17.08;;;8.50;99.90;;;;;;5116105;28;20047;-68
2021/12/14 07:16:52;;;;;;;28.15;17.55;;;8.50;99.90;;;;;;5116476;28;20051;-68
2021/12/14 07:19:46;;;;;;;27.42;17.08;;;8.50;99.90;;;;;;5081092;28;20058;-68
2021/12/14 07:22:32;;;;;;;26.20;16.65;;;8.50;99.90;;;;;;5117406;28;20116;-68
2021/12/14 07:25:07;;;;;;;27.80;16.88;;;8.50;99.90;;;;;;5116052;28;20051;-68
2021/12/14 07:28:06;;;;;;;26.92;17.10;;;8.50;99.90;;;;;;5115008;28;20040;-68
2021/12/14 07:30:42;;;;;;;27.55;16.65;;;8.50;99.90;;;;;;5097793;28;20043;-68
2021/12/14 07:33:10;;;;;;;26.85;17.10;;;8.50;99.90;;;;;;5098730;28;20071;-68
2021/12/14 07:35:53;;;;;;;27.58;17.02;;;8.70;99.90;;;;;;5116139;28;20093;-69
2021/12/14 07:38:30;;;;;;;28.17;17.15;;;8.50;99.90;;;;;;5115770;28;20119;-69
2021/12/14 07:41:06;;;;;;;29.95;17.85;;;8.60;99.90;;;;;;5115790;28;20493;-68
2021/12/14 07:43:43;;;;;;;29.55;16.63;;;8.50;99.90;;;;;;5115764;28;20127;-68
2021/12/14 07:46:18;;;;;;;30.02;17.98;;;8.50;99.90;;;;;;5115745;28;20043;-68
2021/12/14 07:48:56;;;;;;;30.17;17.52;;;8.50;99.90;;;;;;5115696;28;20040;-68
2021/12/14 07:51:25;;;;;;;31.02;17.20;;;8.50;99.90;;;;;;5097901;28;20117;-68
2021/12/14 07:53:58;;;;;;;30.45;18.45;;;8.50;99.90;;;;;;5115399;28;20150;-68
2021/12/14 07:56:41;;;;;;;29.95;18.05;;;8.50;99.90;;;;;;5115408;28;20479;-68
2021/12/14 07:59:33;;;;;;;28.80;18.17;;;8.50;99.90;;;;;;5116026;28;20040;-69
2021/12/14 08:02:10;;;;;;;31.02;18.25;;;8.50;99.90;;;;;;5090830;28;20055;-69
2021/12/14 08:04:39;;;;;;;28.17;18.55;;;8.60;99.90;;;;;;5115265;28;20043;-69
2021/12/14 08:07:05;;;;;;;27.40;16.98;;;8.50;99.90;;;;;;5097018;28;20130;-69
2021/12/14 08:09:45;;;;;;;34.20;18.75;;;8.50;99.90;;;;;;5114829;28;20057;-69
2021/12/14 08:12:25;;;;;;;30.48;18.42;;;8.60;99.90;;;;;;5115252;28;20055;-69
2021/12/14 08:15:06;;;;;;;31.23;18.38;;;8.50;99.90;;;;;;5115771;28;20075;-69
2021/12/14 08:17:32;;;;;;;33.10;19.08;;;8.50;99.90;;;;;;5114982;28;20040;-69
2021/12/14 08:19:57;;;;;;;29.27;18.02;;;8.50;99.90;;;;;;5114959;28;20043;-69
2021/12/14 08:22:36;;;;;;;32.55;18.90;;;8.60;99.90;;;;;;5114879;28;20582;-69
2021/12/14 08:25:05;;;;;;;34.83;20.38;;;8.60;99.90;;;;;;5115446;28;20056;-68
2021/12/14 08:27:30;;;;;;;33.45;19.15;;;8.50;99.90;;;;;;5096958;28;20052;-68
2021/12/14 08:30:01;;;;;;;33.50;19.25;;;8.50;99.90;;;;;;5114823;28;20393;-69
2021/12/14 08:32:34;;;;;;;33.95;20.17;;;8.60;99.90;;;;;;5114830;28;20054;-69
2021/12/14 08:35:04;;;;;;;32.63;19.75;;;8.60;99.90;;;;;;5097069;28;20058;-69
2021/12/14 08:37:42;;;;;;;35.55;20.42;;;8.60;99.90;;;;;;5096614;28;20186;-68
2021/12/14 08:40:18;;;;;;;37.55;20.75;;;8.60;99.90;;;;;;5115187;28;20043;-68
2021/12/14 08:42:53;;;;;;;33.38;19.85;;;8.60;99.90;;;;;;5114610;28;20480;-68
2021/12/14 08:45:27;;;;;;;35.00;18.80;;;8.60;99.90;;;;;;5115111;28;20045;-68
2021/12/14 08:47:55;;;;;;;37.00;21.10;;;8.60;99.90;;;;;;5096910;28;20048;-68
2021/12/14 08:50:21;;;;;;;41.25;21.48;;;8.60;99.90;;;;;;5114458;28;20047;-68
2021/12/14 08:52:51;;;;;;;33.53;20.08;;;8.60;99.90;;;;;;5114428;28;20075;-68
2021/12/14 08:55:20;;;;;;;37.25;19.90;;;9.20;99.90;;;;;;5115275;28;20047;-68
2021/12/14 08:57:46;;;;;;;33.85;19.45;;;8.70;99.90;;;;;;5114401;28;20119;-68
2021/12/14 09:00:16;;;;;;;32.60;20.05;;;8.70;99.90;;;;;;5114416;28;20211;-68
2021/12/14 09:02:45;;;;;;;37.55;21.50;;;8.70;99.90;;;;;;5115259;28;20164;-68
2021/12/14 09:05:26;;;;;;;33.72;19.55;;;8.90;99.90;;;;;;5114330;28;20507;-68
2021/12/14 09:07:52;;;;;;;38.50;21.52;;;8.70;99.90;;;;;;5114418;28;20043;-66
2021/12/14 09:10:21;;;;;;;36.33;20.63;;;8.70;99.90;;;;;;5114287;28;20059;-67
2021/12/14 09:12:50;;;;;;;36.65;20.25;;;8.70;99.90;;;;;;5114845;28;20048;-66
2021/12/14 09:15:35;;;;;;;35.92;19.75;;;8.70;99.90;;;;;;5096074;28;20039;-66
2021/12/14 09:18:02;;;;;;;36.50;19.92;;;8.90;99.90;;;;;;5114270;28;20044;-67
2021/12/14 09:20:52;;;;;;;34.47;19.75;;;8.70;99.90;;;;;;5114723;28;20383;-66
2021/12/14 09:23:23;;;;;;;35.28;20.42;;;8.90;99.90;;;;;;5114469;28;20101;-68
2021/12/14 09:25:50;;;;;;;39.28;20.30;;;8.80;99.90;;;;;;5096253;28;20039;-67
2021/12/14 09:28:17;;;;;;;34.83;20.42;;;8.80;99.90;;;;;;5114125;28;20050;-66
2021/12/14 09:30:48;;;;;;;34.85;19.67;;;8.80;99.90;;;;;;5114086;28;20479;-67
2021/12/14 09:33:17;;;;;;;34.38;19.13;;;8.80;99.90;;;;;;5114770;28;20050;-66
2021/12/14 09:35:47;;;;;;;35.10;20.67;;;9.10;99.90;;;;;;5096472;28;20443;-65
2021/12/14 09:38:17;;;;;;;35.78;21.02;;;8.80;99.90;;;;;;5114177;28;20388;-66
2021/12/14 09:40:53;;;;;;;37.15;21.30;;;8.80;99.90;;;;;;5114016;28;20055;-66
2021/12/14 09:43:21;;;;;;;38.92;21.17;;;8.80;99.90;;;;;;5079999;28;20047;-70
2021/12/14 09:45:52;;;;;;;37.97;20.30;;;8.90;99.90;;;;;;5095968;28;20050;-69
2021/12/14 09:48:34;;;;;;;34.72;20.63;;;8.90;99.90;;;;;;5114024;28;20043;-69
2021/12/14 09:51:07;;;;;;;35.10;20.42;;;8.90;99.90;;;;;;5116732;28;20050;-68
2021/12/14 09:53:36;;;;;;;34.17;19.67;;;8.90;99.90;;;;;;5118798;28;20051;-68
2021/12/14 09:56:03;;;;;;;37.90;20.88;;;8.90;99.90;;;;;;5118638;28;20052;-68
2021/12/14 09:58:37;;;;;;;39.47;20.17;;;8.90;99.90;;;;;;5118343;28;20051;-68
2021/12/14 10:01:16;;;;;;;39.63;21.38;;;8.90;99.90;;;;;;5118143;28;20047;-69
2021/12/14 10:03:44;;;;;;;40.97;22.90;;;8.90;99.90;;;;;;5117859;28;20395;-70
2021/12/14 10:06:15;;;;;;;41.17;22.90;;;8.90;99.90;;;;;;5117732;28;20048;-70
2021/12/14 10:08:51;;;;;;;43.40;22.85;;;8.90;99.90;;;;;;5118271;28;20047;-70
2021/12/14 10:11:34;;;;;;;46.17;24.00;;;8.90;99.90;;;;;;5117443;28;20072;-69
2021/12/14 10:14:03;;;;;;;36.45;22.05;;;9.00;99.90;;;;;;5118192;28;20383;-69
2021/12/14 10:16:28;;;;;;;39.03;21.77;;;8.90;99.90;;;;;;5117407;28;20046;-68
2021/12/14 10:19:05;;;;;;;43.63;22.50;;;9.10;99.90;;;;;;5117466;28;20048;-69
2021/12/14 10:21:34;;;;;;;44.08;22.27;;;8.90;99.90;;;;;;5118057;28;20130;-69
2021/12/14 10:24:04;;;;;;;41.80;23.27;;;9.00;99.90;;;;;;5116944;28;20499;-69
2021/12/14 10:26:32;;;;;;;42.03;21.75;;;9.00;99.90;;;;;;5117261;28;20059;-69
2021/12/14 10:29:00;;;;;;;39.53;22.10;;;9.00;99.90;;;;;;5117283;28;20044;-69
2021/12/14 10:31:28;;;;;;;39.50;22.08;;;9.00;99.90;;;;;;5117207;28;20044;-69
2021/12/14 10:33:56;;;;;;;39.05;21.33;;;9.00;99.90;;;;;;5099302;28;20091;-69
2021/12/14 10:36:29;;;;;;;36.15;20.55;;;9.00;99.90;;;;;;5117727;28;20051;-69
2021/12/14 10:39:07;;;;;;;37.22;21.90;;;9.00;99.90;;;;;;5117693;28;20059;-70
2021/12/14 10:44:20;;;;;;;36.83;21.30;;;9.00;99.90;;;;;;5113148;28;20124;-67
2021/12/14 10:46:49;;;;;;;36.53;20.67;;;9.00;99.90;;;;;;5112644;28;20112;-67
2021/12/14 10:49:18;;;;;;;33.13;19.38;;;9.10;99.90;;;;;;5093886;28;20065;-67
2021/12/14 10:51:47;;;;;;;36.78;20.35;;;9.00;99.90;;;;;;5112068;28;20477;-67
2021/12/14 10:54:15;;;;;;;34.13;19.90;;;9.20;99.90;;;;;;5113330;28;20054;-68
2021/12/14 10:56:55;;;;;;;32.72;18.90;;;9.10;99.90;;;;;;5113515;28;20047;-67
2021/12/14 10:59:27;;;;;;;36.30;20.42;;;9.00;99.90;;;;;;5113910;28;20118;-68
2021/12/14 11:01:54;;;;;;;35.47;21.27;;;9.00;99.90;;;;;;5111763;28;20040;-68
2021/12/14 11:04:37;;;;;;;35.72;19.70;;;9.20;99.90;;;;;;5113351;28;20046;-67
2021/12/14 11:07:07;;;;;;;33.42;19.95;;;9.00;99.90;;;;;;5113470;28;20035;-67
2021/12/14 11:09:45;;;;;;;32.95;18.90;;;9.00;99.90;;;;;;5078091;28;20485;-67
2021/12/14 11:12:27;;;;;;;33.53;19.42;;;9.00;99.90;;;;;;5113000;28;20485;-67
2021/12/14 11:15:00;;;;;;;34.40;18.75;;;9.00;99.90;;;;;;5113335;28;20047;-67
2021/12/14 11:20:19;;;;;;;31.48;18.13;;;9.10;99.90;;;;;;5113186;28;20086;-67
2021/12/14 11:22:48;;;;;;;31.35;18.48;;;9.10;99.90;;;;;;5113388;28;20039;-67
2021/12/14 11:25:20;;;;;;;29.95;17.63;;;9.10;99.90;;;;;;5094689;28;20532;-67
2021/12/14 11:28:11;;;;;;;32.03;18.55;;;9.20;99.90;;;;;;5095027;28;20103;-67
2021/12/14 11:30:43;;;;;;;31.10;17.75;;;9.20;99.90;;;;;;5113593;28;20101;-67
2021/12/14 11:33:10;;;;;;;31.35;18.80;;;9.20;99.90;;;;;;5094995;28;20118;-67
2021/12/14 11:35:44;;;;;;;29.73;17.60;;;9.20;99.90;;;;;;5112814;28;20139;-68
2021/12/14 11:38:47;;;;;;;29.00;17.88;;;9.20;99.90;;;;;;5112660;28;20090;-67
2021/12/14 11:41:28;;;;;;;30.83;17.77;;;9.20;99.90;;;;;;5094607;28;20036;-68
2021/12/14 11:44:12;;;;;;;29.55;17.95;;;9.10;99.90;;;;;;5094775;28;20558;-68
2021/12/14 11:46:56;;;;;;;29.05;17.55;;;9.20;99.90;;;;;;5112838;28;20047;-66
2021/12/14 11:49:26;;;;;;;29.60;16.60;;;9.50;99.90;;;;;;5112680;28;20096;-67
2021/12/14 11:51:52;;;;;;;29.50;17.52;;;9.70;99.90;;;;;;5094526;28;20122;-68
2021/12/14 11:54:20;;;;;;;29.83;17.85;;;9.20;99.90;;;;;;5094629;28;20043;-67
2021/12/14 11:56:49;;;;;;;33.45;17.77;;;9.20;99.90;;;;;;5113069;28;20047;-68
2021/12/14 11:59:17;;;;;;;28.02;16.13;;;9.20;99.90;;;;;;5094642;28;20044;-68
2021/12/14 12:01:52;;;;;;;25.52;17.42;;;9.20;99.90;;;;;;5112513;28;20082;-69
2021/12/14 12:04:34;;;;;;;27.70;16.52;;;9.30;99.90;;;;;;5112616;28;20542;-67
2021/12/14 12:09:39;;;;;;;29.15;16.60;;;9.20;99.90;;;;;;5112549;28;20182;-68
2021/12/14 12:12:04;;;;;;;25.98;15.30;;;9.20;99.90;;;;;;5115219;28;20097;-69
2021/12/14 12:14:39;;;;;;;27.88;15.95;;;9.20;99.90;;;;;;5114925;28;20091;-68
2021/12/14 12:17:29;;;;;;;30.65;17.90;;;9.20;99.90;;;;;;5115917;28;20123;-69
2021/12/14 12:20:02;;;;;;;24.48;16.33;;;9.20;99.90;;;;;;5097587;28;20051;-69
2021/12/14 12:22:51;;;;;;;;;;;9.20;99.90;;;;;;5115519;28;20047;-68
2021/12/14 12:25:27;;;;;;;31.77;16.88;;;9.20;99.90;;;;;;5103746;28;20383;-69
2021/12/14 12:28:00;;;;;;;31.83;17.83;;;9.10;99.90;;;;;;5097689;28;20349;-69
2021/12/14 12:30:50;;;;;;;31.75;17.75;;;9.10;99.90;;;;;;5115594;28;20051;-69
2021/12/14 12:33:40;;;;;;;30.45;16.95;;;9.20;99.90;;;;;;5104891;28;20055;-69
2021/12/14 12:36:28;;;;;;;29.63;17.00;;;9.10;99.90;;;;;;5096967;28;20388;-69
2021/12/14 12:39:16;;;;;;;28.48;16.75;;;9.10;99.90;;;;;;5064026;28;20082;-68
2021/12/14 12:41:46;;;;;;;29.70;17.55;;;9.10;99.90;;;;;;5097293;28;20126;-69
2021/12/14 12:44:17;;;;;;;29.25;17.17;;;9.10;99.90;;;;;;5114670;28;20050;-68
2021/12/14 12:46:47;;;;;;;30.90;16.92;;;9.20;99.90;;;;;;5096658;28;20044;-69
2021/12/14 12:49:45;;;;;;;29.95;16.85;;;9.10;99.90;;;;;;5115438;28;20384;-68
2021/12/14 12:52:16;;;;;;;30.77;17.80;;;9.10;99.90;;;;;;5113391;28;20055;-68
2021/12/14 12:54:47;;;;;;;33.38;19.35;;;9.30;99.90;;;;;;5114663;28;20449;-68
2021/12/14 12:57:32;;;;;;;34.33;19.45;;;9.10;99.90;;;;;;5097163;28;20043;-67
2021/12/14 13:00:12;;;;;;;31.42;16.85;;;9.20;99.90;;;;;;5096882;28;20039;-67
2021/12/14 13:02:38;;;;;;;29.50;17.60;;;9.20;99.90;;;;;;5114463;28;20528;-69
2021/12/14 13:05:23;;;;;;;29.67;17.60;;;9.20;99.90;;;;;;5079678;28;20040;-69
2021/12/14 13:08:01;;;;;;;29.23;16.85;;;9.20;99.90;;;;;;5096446;28;20072;-69
2021/12/14 13:10:55;;;;;;;28.70;16.30;;;9.20;99.90;;;;;;5114675;28;20059;-69
2021/12/14 13:13:29;;;;;;;32.38;17.50;;;9.20;99.90;;;;;;5111770;28;20132;-69
2021/12/14 13:16:14;;;;;;;27.80;15.50;;;9.20;99.90;;;;;;5114211;28;20044;-69
2021/12/14 13:18:51;;;;;;;31.65;16.38;;;9.20;99.90;;;;;;5095562;28;20063;-69
2021/12/14 13:21:28;;;;;;;30.70;16.52;;;9.20;99.90;;;;;;5114276;28;20040;-69
2021/12/14 13:24:17;;;;;;;36.53;17.52;;;9.20;99.90;;;;;;5114622;28;20039;-68
2021/12/14 13:26:53;;;;;;;31.80;17.45;;;9.20;99.90;;;;;;5114674;28;20039;-67
2021/12/14 13:29:34;;;;;;;28.75;15.77;;;9.20;99.90;;;;;;5114319;28;20472;-68
2021/12/14 13:32:12;;;;;;;28.58;15.82;;;9.20;99.90;;;;;;5079676;28;20119;-68
2021/12/14 13:35:09;;;;;;;27.17;15.23;;;9.20;99.90;;;;;;5114043;28;20122;-68
2021/12/14 13:37:45;;;;;;;26.83;14.60;;;9.20;99.90;;;;;;5084690;28;20048;-68
2021/12/14 13:40:13;;;;;;;30.02;16.55;;;9.20;99.90;;;;;;5080080;28;20093;-68
2021/12/14 13:42:53;;;;;;;30.60;16.30;;;9.20;99.90;;;;;;5113946;28;20131;-68